Time;durP1;ratioP1;P1;durP2;ratioP2;P2;SDS_P1;SDS_P2;PMS_P1;PMS_P2;Temp;Humidity;BMP_temperature;BMP_pressure;BME280_temperature;BME280_humidity;BME280_pressure;Samples;Min_cycle;Max_cycle;Signal;HPM_P1;HPM_P2
2023/06/09 00:00:55;;;;;;;7.20;3.80;;;;;;;24.40;53.71;98129.53;5004422;28;20046;-48
2023/06/09 00:03:21;;;;;;;6.60;3.40;;;;;;;24.54;53.38;98121.47;5016223;28;20052;-47
2023/06/09 00:05:50;;;;;;;6.28;3.80;;;;;;;24.73;53.17;98124.75;5033853;28;20013;-47
2023/06/09 00:08:16;;;;;;;7.78;4.30;;;;;;;24.84;52.62;98127.94;5015717;28;20487;-47
2023/06/09 00:10:42;;;;;;;4.90;2.80;;;;;;;24.85;52.19;98122.28;5015964;28;20018;-47
2023/06/09 00:13:09;;;;;;;16.10;8.27;;;;;;;24.87;51.88;98121.94;5033508;28;20033;-47
2023/06/09 00:15:35;;;;;;;8.63;4.03;;;;;;;24.76;52.24;98116.06;5015567;28;20021;-47
2023/06/09 00:18:02;;;;;;;15.43;5.85;;;;;;;24.48;52.53;98110.03;5033380;28;20033;-47
2023/06/09 00:20:33;;;;;;;8.80;6.38;;;;;;;24.32;56.39;98113.06;5014918;28;20071;-47
2023/06/09 00:23:00;;;;;;;14.77;4.03;;;;;;;24.33;56.39;98111.19;5033328;28;20055;-46
2023/06/09 00:25:25;;;;;;;15.48;6.45;;;;;;;24.46;55.16;98106.84;5015647;28;20025;-47
2023/06/09 00:27:51;;;;;;;17.42;5.28;;;;;;;24.49;54.85;98100.88;5033439;28;20063;-47
2023/06/09 00:30:20;;;;;;;15.40;4.63;;;;;;;24.37;54.92;98100.63;5033352;28;20072;-47
2023/06/09 00:32:46;;;;;;;13.07;6.50;;;;;;;24.34;54.60;98091.31;5015572;28;20548;-47
2023/06/09 00:35:12;;;;;;;4.07;3.00;;;;;;;24.30;53.74;98091.13;5015236;28;20029;-47
2023/06/09 00:37:38;;;;;;;12.05;4.40;;;;;;;24.16;53.97;98100.31;5033595;28;20036;-47
2023/06/09 00:40:05;;;;;;;4.28;2.78;;;;;;;24.00;54.25;98089.94;5033240;28;20028;-47
2023/06/09 00:42:31;;;;;;;5.88;2.78;;;;;;;23.80;54.39;98090.41;5014997;28;20025;-47
2023/06/09 00:44:56;;;;;;;6.38;2.50;;;;;;;23.60;54.70;98092.38;5015389;28;20112;-47
2023/06/09 00:47:22;;;;;;;11.48;4.95;;;;;;;23.44;55.60;98088.44;5032779;28;20037;-46
2023/06/09 00:49:48;;;;;;;256.65;236.63;;;;;;;23.39;55.68;98091.25;5032741;28;20091;-47
2023/06/09 00:52:15;;;;;;;10.57;6.30;;;;;;;23.31;55.70;98096.19;5014922;28;20573;-47
2023/06/09 00:54:41;;;;;;;9.55;4.45;;;;;;;23.21;55.86;98093.72;5032582;28;20104;-46
2023/06/09 00:57:08;;;;;;;7.32;3.50;;;;;;;23.19;56.30;98095.91;5032620;28;20533;-47
2023/06/09 00:59:35;;;;;;;28.00;10.07;;;;;;;23.21;56.59;98090.25;4998451;28;20104;-47
2023/06/09 01:02:05;;;;;;;12.90;7.97;;;;;;;23.27;57.61;98092.53;5021788;28;20050;-47
2023/06/09 01:04:34;;;;;;;7.55;3.67;;;;;;;23.28;56.33;98094.13;4995083;28;20104;-47
2023/06/09 01:07:20;;;;;;;5.80;2.83;;;;;;;23.27;56.47;98092.53;5012678;28;20109;-47
2023/06/09 01:09:57;;;;;;;6.57;3.30;;;;;;;23.22;55.72;98089.97;5012715;28;20105;-47
2023/06/09 01:12:32;;;;;;;10.15;3.22;;;;;;;23.13;56.45;98081.81;5012590;28;20054;-47
2023/06/09 01:15:02;;;;;;;;;;;;;;;23.11;56.22;98083.22;5013306;28;20441;-47
2023/06/09 01:17:32;;;;;;;12.52;5.15;;;;;;;23.01;56.74;98078.81;5012807;28;19917;-46
2023/06/09 01:20:03;;;;;;;25.48;22.92;;;;;;;23.10;57.35;98086.97;5012579;28;20022;-46
2023/06/09 01:22:50;;;;;;;57.85;52.78;;;;;;;23.04;56.93;98069.41;4995324;28;20507;-46
2023/06/09 01:25:37;;;;;;;22.30;19.25;;;;;;;22.97;57.46;98066.34;5012435;28;20037;-46
2023/06/09 01:28:18;;;;;;;61.00;51.15;;;;;;;23.01;57.60;98064.66;5012454;28;20022;-46
2023/06/09 01:30:46;;;;;;;27.10;15.80;;;;;;;22.91;57.06;98068.31;5011914;28;20397;-45
2023/06/09 01:33:17;;;;;;;27.40;22.77;;;;;;;22.91;57.79;98066.41;5011988;28;20036;-44
2023/06/09 01:35:44;;;;;;;11.50;8.35;;;;;;;23.12;57.01;98055.38;4994657;28;20034;-45
2023/06/09 01:38:10;;;;;;;15.20;8.30;;;;;;;23.25;56.75;98054.56;4994575;28;20028;-44
2023/06/09 01:40:36;;;;;;;11.27;5.85;;;;;;;23.47;56.97;98053.06;5012104;28;20025;-45
2023/06/09 01:43:05;;;;;;;11.02;8.68;;;;;;;23.48;55.59;98057.28;4994519;28;20124;-45
2023/06/09 01:45:30;;;;;;;19.17;13.73;;;;;;;23.24;57.79;98049.50;5012159;28;20492;-45
2023/06/09 01:47:56;;;;;;;11.77;7.97;;;;;;;23.17;56.73;98054.47;5012124;28;20029;-45
2023/06/09 01:50:39;;;;;;;16.95;10.82;;;;;;;23.02;57.01;98055.53;4994441;28;20029;-45
2023/06/09 01:53:12;;;;;;;22.77;17.88;;;;;;;22.90;57.19;98056.81;4994439;28;20034;-45
2023/06/09 01:55:44;;;;;;;24.02;18.15;;;;;;;22.94;58.51;98060.50;4994341;28;20032;-45
2023/06/09 01:58:17;;;;;;;17.70;11.70;;;;;;;23.06;57.97;98057.34;5012049;28;20411;-45
2023/06/09 02:00:46;;;;;;;18.05;13.27;;;;;;;23.19;57.52;98063.78;5011937;28;20038;-45
2023/06/09 02:03:16;;;;;;;29.67;13.38;;;;;;;23.31;57.44;98058.72;4994336;28;20030;-45
2023/06/09 02:05:43;;;;;;;30.92;25.23;;;;;;;23.50;56.71;98063.16;4994367;28;20091;-45
2023/06/09 02:08:09;;;;;;;17.73;9.15;;;;;;;23.58;56.43;98062.44;5011924;28;20045;-44
2023/06/09 02:10:36;;;;;;;8.82;5.18;;;;;;;23.57;55.98;98058.19;5011880;28;20030;-45
2023/06/09 02:13:19;;;;;;;8.60;3.85;;;;;;;23.58;55.82;98058.97;4994505;28;20030;-45
2023/06/09 02:15:46;;;;;;;17.20;10.18;;;;;;;23.42;56.21;98061.19;5011909;28;20033;-45
2023/06/09 02:18:12;;;;;;;7.30;6.43;;;;;;;23.32;56.64;98056.81;4994120;28;20072;-45
2023/06/09 02:20:40;;;;;;;10.48;7.13;;;;;;;23.15;56.36;98060.13;4994103;28;20044;-45
2023/06/09 02:23:06;;;;;;;24.85;16.08;;;;;;;23.08;56.59;98067.75;5012059;28;20125;-45
2023/06/09 02:25:33;;;;;;;14.80;11.93;;;;;;;23.07;56.36;98079.56;5011756;28;20029;-45
2023/06/09 02:28:05;;;;;;;20.42;9.57;;;;;;;22.89;57.43;98078.50;4994278;28;20046;-45
2023/06/09 02:30:32;;;;;;;17.50;7.15;;;;;;;22.75;57.51;98070.47;4994056;28;20399;-45
2023/06/09 02:33:01;;;;;;;17.23;8.80;;;;;;;22.73;57.77;98072.66;4994072;28;20041;-44
2023/06/09 02:35:29;;;;;;;15.35;7.00;;;;;;;22.76;58.21;98080.09;5011687;28;20025;-45
2023/06/09 02:37:57;;;;;;;16.55;10.27;;;;;;;22.92;57.51;98076.03;4994066;28;20112;-45
2023/06/09 02:40:25;;;;;;;9.27;3.17;;;;;;;22.94;57.44;98083.78;4978264;28;20029;-45
2023/06/09 02:42:50;;;;;;;16.00;7.75;;;;;;;23.09;57.50;98080.03;4995230;28;20117;-45
2023/06/09 02:45:16;;;;;;;9.15;4.43;;;;;;;23.05;56.57;98074.50;4997705;28;20626;-45
2023/06/09 02:47:42;;;;;;;17.67;5.20;;;;;;;22.82;57.38;98070.88;4997763;28;20391;-45
2023/06/09 02:50:08;;;;;;;14.60;4.70;;;;;;;22.96;57.71;98065.53;4997610;28;20029;-45
2023/06/09 02:52:34;;;;;;;8.00;3.42;;;;;;;22.94;58.11;98065.84;4997685;28;20029;-44
2023/06/09 02:55:00;;;;;;;11.43;3.85;;;;;;;22.94;57.42;98068.50;5015206;28;20041;-45
2023/06/09 02:57:27;;;;;;;15.80;6.70;;;;;;;22.89;57.58;98068.59;5015646;28;20030;-44
2023/06/09 02:59:53;;;;;;;15.07;7.53;;;;;;;22.70;58.31;98062.56;5015130;28;20107;-44
2023/06/09 03:02:19;;;;;;;16.27;10.30;;;;;;;22.65;58.12;98054.59;5014624;28;20058;-45
2023/06/09 03:04:45;;;;;;;15.82;5.72;;;;;;;22.66;58.87;98058.88;4997421;28;20024;-45
2023/06/09 03:07:13;;;;;;;20.98;9.30;;;;;;;22.88;57.91;98053.66;5014935;28;20068;-45
2023/06/09 03:09:40;;;;;;;25.92;9.93;;;;;;;22.94;57.63;98055.13;5014900;28;20040;-45
2023/06/09 03:12:06;;;;;;;6.97;3.28;;;;;;;23.04;57.57;98048.00;4997257;28;20072;-44
2023/06/09 03:14:33;;;;;;;5.60;2.60;;;;;;;23.10;57.20;98052.16;4997423;28;20021;-45
2023/06/09 03:16:58;;;;;;;10.05;3.00;;;;;;;23.03;57.19;98046.44;4997032;28;20032;-45
2023/06/09 03:19:24;;;;;;;12.52;4.57;;;;;;;22.96;57.34;98048.69;4997081;28;20121;-45
2023/06/09 03:21:52;;;;;;;30.85;8.15;;;;;;;22.92;57.76;98045.81;4996924;28;20092;-45
2023/06/09 03:24:19;;;;;;;18.15;5.38;;;;;;;22.92;57.59;98043.94;5014594;28;20446;-45
2023/06/09 03:26:47;;;;;;;28.95;14.90;;;;;;;22.67;57.83;98052.44;5014588;28;20060;-45
2023/06/09 03:29:13;;;;;;;11.35;5.65;;;;;;;22.40;58.66;98056.63;5014700;28;20040;-45
2023/06/09 03:31:39;;;;;;;10.18;4.90;;;;;;;22.30;59.06;98060.25;4980704;28;20495;-44
2023/06/09 03:34:05;;;;;;;15.48;9.68;;;;;;;22.18;59.47;98054.56;4996781;28;20033;-45
2023/06/09 03:36:33;;;;;;;18.40;6.63;;;;;;;22.32;59.67;98059.97;4996730;28;20030;-44
2023/06/09 03:38:58;;;;;;;11.73;4.45;;;;;;;22.42;59.08;98059.81;5014349;28;20089;-45
2023/06/09 03:41:26;;;;;;;13.20;5.60;;;;;;;22.52;59.07;98066.88;4996609;28;20037;-45
2023/06/09 03:43:52;;;;;;;13.95;4.25;;;;;;;22.68;58.39;98075.44;4996547;28;20545;-45
2023/06/09 03:46:18;;;;;;;13.98;5.45;;;;;;;22.71;58.09;98070.25;5014193;28;20057;-45
2023/06/09 03:48:44;;;;;;;22.35;9.43;;;;;;;22.56;58.83;98080.44;4996600;28;20026;-45
2023/06/09 03:51:09;;;;;;;9.35;6.22;;;;;;;22.54;59.09;98076.19;4996434;28;20486;-45
2023/06/09 03:53:35;;;;;;;10.65;4.53;;;;;;;22.66;59.06;98073.03;4996147;28;20036;-45
2023/06/09 03:56:01;;;;;;;16.63;8.45;;;;;;;22.86;58.37;98066.53;5013694;28;20034;-45
2023/06/09 03:58:27;;;;;;;12.95;4.53;;;;;;;23.04;57.93;98069.41;4996369;28;20484;-45
2023/06/09 04:00:53;;;;;;;15.13;5.28;;;;;;;23.09;57.81;98064.78;5013535;28;20109;-45
2023/06/09 04:03:20;;;;;;;24.33;14.63;;;;;;;23.17;57.53;98065.19;4996421;28;20046;-45
2023/06/09 04:05:49;;;;;;;8.98;5.28;;;;;;;23.22;58.11;98068.56;5013806;28;20026;-45
2023/06/09 04:08:15;;;;;;;24.40;12.60;;;;;;;23.28;57.05;98070.03;4996191;28;20400;-45
2023/06/09 04:10:41;;;;;;;22.88;8.10;;;;;;;23.17;57.63;98074.00;5013720;28;20026;-45
2023/06/09 04:13:11;;;;;;;5.30;3.20;;;;;;;23.14;58.19;98079.97;4996089;28;20024;-45
2023/06/09 04:15:37;;;;;;;15.45;4.60;;;;;;;23.28;57.78;98078.06;5013938;28;20060;-45
2023/06/09 04:18:03;;;;;;;7.43;3.53;;;;;;;23.28;57.90;98083.44;5013623;28;20030;-45
2023/06/09 04:20:29;;;;;;;10.73;4.65;;;;;;;23.23;58.06;98085.41;4996002;28;20092;-44
2023/06/09 04:22:55;;;;;;;11.65;5.13;;;;;;;23.20;58.76;98081.44;4995764;28;20030;-45
2023/06/09 04:25:25;;;;;;;19.25;10.20;;;;;;;23.10;58.32;98081.63;5013488;28;20030;-44
2023/06/09 04:28:00;;;;;;;12.73;5.93;;;;;;;23.05;58.92;98084.41;5013334;28;20088;-45
2023/06/09 04:30:25;;;;;;;19.65;7.88;;;;;;;22.93;58.67;98085.66;4995780;28;20026;-45
2023/06/09 04:32:53;;;;;;;13.15;7.47;;;;;;;22.72;59.42;98081.78;4995745;28;20678;-45
2023/06/09 04:35:20;;;;;;;26.75;17.30;;;;;;;22.72;60.30;98082.56;5013257;28;20044;-45
2023/06/09 04:37:46;;;;;;;13.32;10.40;;;;;;;22.92;59.75;98091.31;4995643;28;20045;-45
2023/06/09 04:40:14;;;;;;;14.30;4.05;;;;;;;23.00;59.96;98092.50;5013072;28;20411;-45
2023/06/09 04:42:40;;;;;;;24.73;14.23;;;;;;;23.24;59.09;98095.81;5013132;28;20018;-45
2023/06/09 04:45:07;;;;;;;17.00;4.97;;;;;;;23.65;58.34;98089.63;4995446;28;20522;-45
2023/06/09 04:47:32;;;;;;;14.73;8.10;;;;;;;23.94;57.09;98091.16;4995431;28;20036;-45
2023/06/09 04:49:58;;;;;;;18.00;10.30;;;;;;;24.47;55.78;98095.03;4995334;28;20026;-45
2023/06/09 04:52:24;;;;;;;18.20;8.65;;;;;;;24.74;54.47;98093.31;4995274;28;20034;-44
2023/06/09 04:54:51;;;;;;;10.30;6.93;;;;;;;25.60;52.53;98095.53;5013175;28;20080;-45
2023/06/09 04:57:17;;;;;;;19.13;7.97;;;;;;;26.43;50.35;98088.44;4995274;28;20022;-45
2023/06/09 04:59:45;;;;;;;18.88;5.28;;;;;;;27.22;47.72;98084.41;5012916;28;20041;-45
2023/06/09 05:02:11;;;;;;;13.65;3.88;;;;;;;27.77;46.85;98081.88;5012484;28;20049;-45
2023/06/09 05:04:37;;;;;;;7.68;3.60;;;;;;;27.75;46.40;98094.88;4995095;28;20080;-45
2023/06/09 05:07:04;;;;;;;18.05;4.50;;;;;;;28.09;44.90;98094.66;4994935;28;20025;-45
2023/06/09 05:09:30;;;;;;;15.88;3.75;;;;;;;28.19;45.07;98101.56;5012731;28;20388;-45
2023/06/09 05:11:55;;;;;;;10.50;3.92;;;;;;;28.07;44.75;98098.78;4994929;28;20033;-45
2023/06/09 05:14:21;;;;;;;9.73;3.90;;;;;;;27.43;46.42;98102.56;4978810;28;20018;-45
2023/06/09 05:16:47;;;;;;;10.52;3.97;;;;;;;26.99;47.76;98110.81;4994951;28;20411;-45
2023/06/09 05:19:13;;;;;;;9.20;4.50;;;;;;;26.77;48.18;98106.44;5012581;28;20022;-45
2023/06/09 05:21:39;;;;;;;18.52;4.57;;;;;;;26.92;48.06;98110.50;4994774;28;20025;-45
2023/06/09 05:24:05;;;;;;;18.90;8.77;;;;;;;27.03;47.56;98110.97;4994776;28;20073;-45
2023/06/09 05:26:31;;;;;;;6.15;3.42;;;;;;;27.06;47.47;98113.00;4994757;28;20499;-45
2023/06/09 05:28:58;;;;;;;12.65;4.05;;;;;;;27.08;47.67;98114.28;4994715;28;20029;-45
2023/06/09 05:31:24;;;;;;;6.60;3.30;;;;;;;26.89;48.33;98114.66;5012346;28;20021;-45
2023/06/09 05:33:50;;;;;;;11.52;3.78;;;;;;;26.76;47.79;98114.84;5012296;28;20026;-45
2023/06/09 05:36:16;;;;;;;9.13;3.22;;;;;;;26.49;48.43;98109.47;4994599;28;20409;-45
2023/06/09 05:38:42;;;;;;;8.60;4.53;;;;;;;26.33;49.60;98113.00;4994674;28;20065;-45
2023/06/09 05:41:07;;;;;;;11.75;7.30;;;;;;;26.31;49.63;98108.72;4994723;28;20117;-45
2023/06/09 05:43:33;;;;;;;25.40;12.13;;;;;;;26.20;49.81;98112.03;4994589;28;20030;-45
2023/06/09 05:45:59;;;;;;;13.70;4.30;;;;;;;26.19;49.76;98107.78;4994774;28;20025;-45
2023/06/09 05:48:25;;;;;;;9.00;4.15;;;;;;;26.25;49.12;98115.38;5012146;28;20029;-45
2023/06/09 05:50:51;;;;;;;11.55;3.75;;;;;;;26.14;49.51;98118.69;4994531;28;20026;-45
2023/06/09 05:53:16;;;;;;;9.10;3.55;;;;;;;26.11;49.93;98114.75;5012041;28;20037;-45
2023/06/09 05:55:44;;;;;;;5.78;3.33;;;;;;;26.04;49.83;98115.22;5012258;28;20021;-45
2023/06/09 05:58:11;;;;;;;12.50;5.20;;;;;;;26.08;49.92;98112.69;5012008;28;20084;-45
2023/06/09 06:00:37;;;;;;;8.05;3.40;;;;;;;26.06;50.01;98120.28;5011988;28;20018;-45
2023/06/09 06:03:03;;;;;;;12.27;3.53;;;;;;;26.11;50.01;98117.44;5011730;28;20057;-45
2023/06/09 06:05:29;;;;;;;4.38;2.67;;;;;;;26.23;49.57;98120.28;4994363;28;20037;-45
2023/06/09 06:07:58;;;;;;;8.48;3.70;;;;;;;26.36;49.44;98117.72;4994230;28;20072;-45
2023/06/09 06:10:25;;;;;;;5.85;3.33;;;;;;;26.53;48.74;98130.38;5011923;28;20087;-45
2023/06/09 06:12:51;;;;;;;4.88;3.17;;;;;;;26.53;49.20;98122.31;5011913;28;20041;-45
2023/06/09 06:15:18;;;;;;;10.85;3.88;;;;;;;26.66;48.48;98124.84;5011886;28;20101;-45
2023/06/09 06:17:43;;;;;;;5.50;2.80;;;;;;;26.64;48.56;98129.78;4995757;28;20044;-45
2023/06/09 06:20:11;;;;;;;14.57;4.07;;;;;;;26.64;48.43;98128.97;5015800;28;20026;-45
2023/06/09 06:22:37;;;;;;;5.35;2.90;;;;;;;26.66;48.40;98132.94;5015986;28;20365;-45
2023/06/09 06:25:03;;;;;;;7.47;3.55;;;;;;;26.66;48.13;98127.53;4998049;28;20522;-45
2023/06/09 06:27:29;;;;;;;9.43;3.50;;;;;;;26.62;48.60;98132.00;5015694;28;20022;-45
2023/06/09 06:29:55;;;;;;;8.43;3.95;;;;;;;26.72;47.74;98130.84;5015663;28;20026;-45
2023/06/09 06:32:20;;;;;;;6.65;3.47;;;;;;;26.82;47.74;98130.53;4997948;28;20502;-45
2023/06/09 06:34:46;;;;;;;10.00;4.00;;;;;;;26.97;47.53;98131.88;5015511;28;20034;-45
2023/06/09 06:37:12;;;;;;;14.13;4.10;;;;;;;27.07;47.49;98134.22;5015467;28;20462;-45
2023/06/09 06:39:39;;;;;;;8.82;3.25;;;;;;;27.15;47.44;98139.91;5015344;28;20054;-45
2023/06/09 06:42:05;;;;;;;13.15;5.47;;;;;;;27.02;47.49;98142.47;4997952;28;20044;-45
2023/06/09 06:44:31;;;;;;;4.78;3.70;;;;;;;27.06;46.63;98142.63;5015591;28;20026;-45
2023/06/09 06:46:57;;;;;;;7.53;4.63;;;;;;;26.89;46.99;98140.78;5015333;28;20022;-45
2023/06/09 06:49:22;;;;;;;6.07;3.33;;;;;;;26.69;47.25;98137.66;4997643;28;20557;-45
2023/06/09 06:51:48;;;;;;;6.45;3.47;;;;;;;26.60;47.69;98149.53;4997629;28;20452;-45
2023/06/09 06:54:16;;;;;;;5.30;3.30;;;;;;;26.56;47.83;98143.19;5015230;28;20399;-45
2023/06/09 06:56:41;;;;;;;5.55;3.95;;;;;;;26.47;48.24;98146.69;5015047;28;20022;-45
2023/06/09 06:59:07;;;;;;;7.07;4.10;;;;;;;26.57;48.40;98147.47;4997495;28;20448;-45
2023/06/09 07:01:33;;;;;;;6.43;4.70;;;;;;;26.64;48.64;98153.19;5014778;28;20050;-45
2023/06/09 07:03:59;;;;;;;6.32;3.60;;;;;;;26.80;48.16;98148.91;5015035;28;20030;-45
2023/06/09 07:06:25;;;;;;;14.48;4.20;;;;;;;26.95;47.66;98149.50;4997354;28;20037;-45
2023/06/09 07:08:54;;;;;;;9.13;4.05;;;;;;;27.11;47.24;98145.16;4997258;28;20395;-45
2023/06/09 07:11:19;;;;;;;5.82;4.50;;;;;;;27.09;47.35;98150.84;5014871;28;20030;-45
2023/06/09 07:13:45;;;;;;;7.25;4.45;;;;;;;27.19;47.24;98141.63;4997140;28;20050;-45
2023/06/09 07:16:11;;;;;;;8.85;4.15;;;;;;;27.39;46.78;98144.75;4997145;28;20026;-45
2023/06/09 07:18:36;;;;;;;4.70;3.70;;;;;;;27.51;46.67;98144.84;5014754;28;20124;-45
2023/06/09 07:21:02;;;;;;;8.05;4.47;;;;;;;27.56;46.21;98144.66;4997238;28;20499;-45
2023/06/09 07:23:28;;;;;;;5.35;3.70;;;;;;;27.54;46.63;98144.19;5014688;28;20028;-45
2023/06/09 07:25:54;;;;;;;14.13;4.43;;;;;;;27.46;46.57;98148.50;5014537;28;20034;-45
2023/06/09 07:28:20;;;;;;;9.23;4.28;;;;;;;27.41;46.85;98159.47;5014574;28;20065;-45
2023/06/09 07:30:46;;;;;;;26.30;7.60;;;;;;;27.36;47.24;98158.88;4995950;28;20084;-45
2023/06/09 07:33:13;;;;;;;16.38;5.38;;;;;;;27.30;47.41;98155.56;5014551;28;20537;-45
2023/06/09 07:35:40;;;;;;;21.67;5.65;;;;;;;27.25;47.06;98156.53;5014447;28;20388;-45
2023/06/09 07:38:07;;;;;;;10.48;4.47;;;;;;;27.31;47.55;98159.84;5014340;28;20071;-45
2023/06/09 07:40:33;;;;;;;5.68;4.07;;;;;;;27.52;46.70;98164.50;5014613;28;20395;-45
2023/06/09 07:42:59;;;;;;;8.60;4.60;;;;;;;27.74;46.57;98152.66;5014550;28;20079;-45
2023/06/09 07:45:25;;;;;;;7.30;3.92;;;;;;;28.12;45.56;98159.88;5014279;28;20107;-45
2023/06/09 07:47:50;;;;;;;10.98;3.97;;;;;;;28.33;44.85;98146.38;4996626;28;20109;-45
2023/06/09 07:50:17;;;;;;;10.68;4.50;;;;;;;28.55;44.71;98156.03;4996477;28;20029;-45
2023/06/09 07:52:43;;;;;;;9.27;3.75;;;;;;;28.47;44.31;98158.47;5014118;28;20116;-45
2023/06/09 07:55:09;;;;;;;8.30;3.78;;;;;;;28.53;43.96;98153.66;4996486;28;20507;-45
2023/06/09 07:57:34;;;;;;;13.25;4.78;;;;;;;28.57;44.26;98156.50;4996403;28;20026;-45
2023/06/09 08:00:00;;;;;;;6.60;4.57;;;;;;;28.48;43.82;98154.63;4996445;28;20124;-45
2023/06/09 08:02:26;;;;;;;6.47;4.45;;;;;;;28.39;44.49;98151.25;5006486;28;20058;-45
2023/06/09 08:04:52;;;;;;;6.40;4.13;;;;;;;28.40;44.44;98147.41;5012638;28;20034;-45
2023/06/09 08:07:18;;;;;;;5.43;4.15;;;;;;;28.25;44.23;98167.72;5014155;28;20030;-45
2023/06/09 08:09:43;;;;;;;7.45;4.50;;;;;;;28.06;44.98;98165.47;5013862;28;20084;-45
2023/06/09 08:12:10;;;;;;;8.38;5.80;;;;;;;27.81;45.29;98158.28;5012496;28;20026;-45
2023/06/09 08:14:36;;;;;;;14.07;6.63;;;;;;;27.48;46.18;98162.44;5013717;28;20085;-45
2023/06/09 08:17:01;;;;;;;8.70;4.85;;;;;;;27.36;46.40;98158.88;5012414;28;20026;-45
2023/06/09 08:19:28;;;;;;;7.88;5.38;;;;;;;27.06;46.93;98158.78;5013675;28;20030;-45
2023/06/09 08:21:54;;;;;;;6.95;4.72;;;;;;;26.97;47.37;98160.72;5013746;28;20028;-45
2023/06/09 08:24:20;;;;;;;6.60;4.63;;;;;;;26.89;48.06;98157.72;5013649;28;20037;-45
2023/06/09 08:26:48;;;;;;;7.20;5.05;;;;;;;26.85;48.22;98153.31;5013700;28;20018;-45
2023/06/09 08:29:15;;;;;;;5.40;4.28;;;;;;;26.87;47.89;98146.50;5013415;28;20086;-45
2023/06/09 08:31:41;;;;;;;8.07;4.97;;;;;;;26.88;47.93;98153.47;5012126;28;20053;-45
2023/06/09 08:34:07;;;;;;;12.77;4.88;;;;;;;26.89;47.83;98154.25;5012087;28;20487;-45
2023/06/09 08:36:33;;;;;;;6.15;4.78;;;;;;;26.96;47.22;98156.44;5012028;28;20022;-45
2023/06/09 08:38:58;;;;;;;5.45;4.88;;;;;;;26.99;47.66;98155.81;5012016;28;20057;-45
2023/06/09 08:41:34;;;;;;;6.32;4.93;;;;;;;26.95;47.46;98160.25;5011530;28;20057;-45
2023/06/09 08:44:01;;;;;;;10.82;5.05;;;;;;;27.12;47.58;98162.09;5013256;28;20026;-45
2023/06/09 08:46:32;;;;;;;24.40;8.70;;;;;;;27.15;47.43;98167.63;5011805;28;20491;-45
2023/06/09 08:49:01;;;;;;;9.15;5.40;;;;;;;27.10;47.68;98162.41;5011856;28;20058;-45
2023/06/09 08:51:28;;;;;;;14.25;5.47;;;;;;;27.35;47.29;98168.09;5012973;28;20037;-45
2023/06/09 08:53:54;;;;;;;11.38;5.38;;;;;;;27.63;46.65;98177.28;5011722;28;20029;-45
2023/06/09 08:56:21;;;;;;;11.45;5.50;;;;;;;27.78;46.37;98177.84;5011644;28;20455;-45
2023/06/09 08:58:48;;;;;;;9.63;5.13;;;;;;;27.82;46.14;98176.84;5012862;28;20026;-45
2023/06/09 09:01:17;;;;;;;14.30;5.93;;;;;;;27.75;46.10;98175.78;5012826;28;20050;-45
2023/06/09 09:03:43;;;;;;;10.82;6.38;;;;;;;27.56;46.23;98184.31;5012861;28;20022;-45
2023/06/09 09:06:09;;;;;;;6.80;5.70;;;;;;;27.21;46.91;98179.81;4995186;28;20075;-45
2023/06/09 09:08:35;;;;;;;11.43;6.30;;;;;;;27.02;47.73;98182.88;4995116;28;20109;-45
2023/06/09 09:11:01;;;;;;;17.63;6.57;;;;;;;27.09;47.37;98187.78;4995023;28;20040;-45
2023/06/09 09:13:30;;;;;;;11.75;6.35;;;;;;;27.25;47.46;98185.38;4995052;28;20030;-45
2023/06/09 09:15:58;;;;;;;10.98;6.53;;;;;;;27.33;47.59;98186.47;4995354;28;20030;-45
2023/06/09 09:18:23;;;;;;;13.80;6.50;;;;;;;27.23;47.52;98184.91;5012586;28;20091;-45
2023/06/09 09:20:49;;;;;;;7.85;5.68;;;;;;;27.05;47.15;98184.16;5012449;28;20497;-45
2023/06/09 09:23:15;;;;;;;7.22;5.90;;;;;;;26.97;47.34;98184.97;5012546;28;20030;-45
2023/06/09 09:25:43;;;;;;;12.30;7.05;;;;;;;26.93;47.36;98178.66;5012469;28;20029;-45
2023/06/09 09:28:12;;;;;;;8.48;5.82;;;;;;;27.00;46.75;98178.94;5012332;28;20026;-45
2023/06/09 09:30:50;;;;;;;14.88;6.65;;;;;;;26.99;46.54;98180.06;5012585;28;20435;-45
2023/06/09 09:33:26;;;;;;;8.05;6.35;;;;;;;27.15;47.10;98180.31;4994764;28;20480;-46
2023/06/09 09:35:54;;;;;;;8.35;5.70;;;;;;;27.26;46.31;98176.19;5012565;28;20052;-46
2023/06/09 09:38:26;;;;;;;11.02;7.88;;;;;;;27.21;46.08;98174.44;4994662;28;20049;-46
2023/06/09 09:40:56;;;;;;;8.55;5.70;;;;;;;27.22;46.42;98176.00;5012148;28;20033;-46
2023/06/09 09:43:25;;;;;;;10.32;6.40;;;;;;;27.24;46.61;98178.41;5012232;28;20042;-45
2023/06/09 09:45:53;;;;;;;22.33;6.85;;;;;;;27.27;46.48;98178.56;5012405;28;20026;-46
2023/06/09 09:48:24;;;;;;;14.70;6.55;;;;;;;27.33;46.50;98179.19;4978389;28;20109;-46
2023/06/09 09:50:57;;;;;;;19.50;9.18;;;;;;;27.46;46.33;98175.44;5012134;28;20030;-45
2023/06/09 09:53:24;;;;;;;6.97;5.90;;;;;;;27.64;45.89;98175.38;4993755;28;20034;-45
2023/06/09 09:55:53;;;;;;;9.57;7.28;;;;;;;27.57;46.34;98170.50;5011968;28;20101;-45
2023/06/09 09:58:26;;;;;;;15.10;8.50;;;;;;;27.43;46.45;98173.41;4994420;28;20018;-46
2023/06/09 10:00:57;;;;;;;9.68;7.07;;;;;;;27.26;46.10;98165.41;5011967;28;20038;-46
2023/06/09 10:03:24;;;;;;;14.65;9.27;;;;;;;26.97;47.43;98172.28;5012060;28;20022;-45
2023/06/09 10:05:50;;;;;;;15.30;7.40;;;;;;;26.78;47.49;98177.22;4978241;28;20026;-45
2023/06/09 10:08:28;;;;;;;11.02;7.38;;;;;;;26.72;47.83;98184.69;5011899;28;20026;-45
2023/06/09 10:11:02;;;;;;;12.80;7.35;;;;;;;26.80;47.61;98181.22;4994680;28;20120;-45
2023/06/09 10:13:28;;;;;;;10.13;7.05;;;;;;;26.94;47.57;98169.44;5011910;28;20092;-45
2023/06/09 10:15:58;;;;;;;12.38;6.82;;;;;;;27.07;46.82;98173.84;4994194;28;20030;-46
2023/06/09 10:18:25;;;;;;;9.15;6.57;;;;;;;27.25;47.24;98172.69;5011772;28;20033;-46
2023/06/09 10:20:54;;;;;;;11.90;6.63;;;;;;;27.25;46.63;98170.00;5011859;28;20034;-46
2023/06/09 10:23:22;;;;;;;14.95;9.43;;;;;;;27.30;47.93;98175.19;5011809;28;20030;-46
2023/06/09 10:25:51;;;;;;;14.02;8.40;;;;;;;27.12;49.79;98173.66;4994171;28;20025;-46
2023/06/09 10:28:19;;;;;;;10.15;7.78;;;;;;;26.74;50.17;98176.28;4994126;28;20029;-46
2023/06/09 10:30:46;;;;;;;9.25;7.72;;;;;;;26.48;50.73;98183.28;5012040;28;20076;-46
2023/06/09 10:33:26;;;;;;;16.58;14.52;;;;;;;26.43;50.84;98177.25;4994108;28;20450;-46
2023/06/09 10:36:00;;;;;;;14.80;9.73;;;;;;;26.45;50.59;98177.72;4977920;28;20034;-46
2023/06/09 10:38:40;;;;;;;9.93;7.68;;;;;;;26.56;50.34;98179.00;4994041;28;20444;-46
2023/06/09 10:41:31;;;;;;;16.88;8.02;;;;;;;26.52;49.75;98180.72;4993959;28;20041;-45
2023/06/09 10:44:34;;;;;;;8.95;7.13;;;;;;;26.35;50.02;98172.66;4994038;28;20030;-45
2023/06/09 10:47:00;;;;;;;11.07;7.65;;;;;;;26.25;49.91;98171.06;4993984;28;20026;-45
2023/06/09 10:49:25;;;;;;;20.75;9.20;;;;;;;26.19;50.60;98177.72;5011880;28;20026;-45
2023/06/09 10:51:54;;;;;;;10.38;7.10;;;;;;;26.39;50.42;98171.69;5011532;28;20088;-45
2023/06/09 10:54:25;;;;;;;10.27;7.43;;;;;;;26.58;49.51;98173.28;4993875;28;20124;-45
2023/06/09 10:56:57;;;;;;;9.73;7.20;;;;;;;26.81;49.24;98165.84;4993810;28;20109;-45
2023/06/09 10:59:25;;;;;;;11.80;10.68;;;;;;;26.84;48.66;98167.88;5011569;28;20054;-45
2023/06/09 11:02:03;;;;;;;9.60;7.97;;;;;;;26.81;48.65;98166.63;5011119;28;20050;-46
2023/06/09 11:04:46;;;;;;;13.63;8.38;;;;;;;26.83;48.42;98169.00;5013584;28;20022;-45
2023/06/09 11:07:19;;;;;;;26.92;24.48;;;;;;;26.98;48.25;98165.78;4997378;28;20041;-46
2023/06/09 11:09:50;;;;;;;10.80;9.65;;;;;;;27.06;47.72;98169.56;4997278;28;20125;-46
2023/06/09 11:12:25;;;;;;;17.17;9.73;;;;;;;27.01;47.87;98165.16;4997236;28;20404;-45
2023/06/09 11:14:58;;;;;;;9.10;7.15;;;;;;;26.93;48.22;98162.50;4997207;28;20388;-45
2023/06/09 11:17:42;;;;;;;7.88;7.10;;;;;;;26.75;48.06;98167.91;5014782;28;20040;-45
2023/06/09 11:20:20;;;;;;;9.02;7.03;;;;;;;26.58;48.35;98174.13;5014756;28;20076;-45
2023/06/09 11:22:47;;;;;;;29.67;8.30;;;;;;;26.48;48.95;98160.94;5014733;28;20038;-45
2023/06/09 11:25:19;;;;;;;9.02;7.38;;;;;;;26.43;48.98;98164.56;5014617;28;20030;-45
2023/06/09 11:27:50;;;;;;;14.45;7.90;;;;;;;26.40;49.34;98165.22;5014670;28;20026;-45
2023/06/09 11:30:18;;;;;;;33.83;11.85;;;;;;;26.49;49.25;98160.63;5014553;28;20041;-45